sensor_id;sensor_type;location;lat;lon;timestamp;P1;durP1;ratioP1;P2;durP2;ratioP2
30818;SDS011;17546;42.674;23.284;2023-12-22T00:01:08;85.60;;;39.05;;
30818;SDS011;17546;42.674;23.284;2023-12-22T00:03:33;87.65;;;39.88;;
30818;SDS011;17546;42.674;23.284;2023-12-22T00:05:59;89.47;;;38.55;;
30818;SDS011;17546;42.674;23.284;2023-12-22T00:08:24;74.28;;;36.40;;
30818;SDS011;17546;42.674;23.284;2023-12-22T00:10:49;77.18;;;35.10;;
30818;SDS011;17546;42.674;23.284;2023-12-22T00:13:15;70.93;;;31.13;;
30818;SDS011;17546;42.674;23.284;2023-12-22T00:15:41;67.40;;;28.13;;
30818;SDS011;17546;42.674;23.284;2023-12-22T00:18:07;57.33;;;27.30;;
30818;SDS011;17546;42.674;23.284;2023-12-22T00:20:33;57.88;;;27.13;;
30818;SDS011;17546;42.674;23.284;2023-12-22T00:22:58;52.95;;;24.77;;
30818;SDS011;17546;42.674;23.284;2023-12-22T00:25:24;43.30;;;22.15;;
30818;SDS011;17546;42.674;23.284;2023-12-22T00:27:49;46.92;;;22.70;;
30818;SDS011;17546;42.674;23.284;2023-12-22T00:30:15;48.55;;;23.38;;
30818;SDS011;17546;42.674;23.284;2023-12-22T00:32:40;53.72;;;23.15;;
30818;SDS011;17546;42.674;23.284;2023-12-22T00:35:06;49.10;;;23.35;;
30818;SDS011;17546;42.674;23.284;2023-12-22T00:37:32;52.78;;;22.95;;
30818;SDS011;17546;42.674;23.284;2023-12-22T00:39:57;50.85;;;22.92;;
30818;SDS011;17546;42.674;23.284;2023-12-22T00:42:23;50.38;;;22.55;;
30818;SDS011;17546;42.674;23.284;2023-12-22T00:44:48;50.80;;;22.75;;
30818;SDS011;17546;42.674;23.284;2023-12-22T00:47:14;54.17;;;22.10;;
30818;SDS011;17546;42.674;23.284;2023-12-22T00:49:39;48.47;;;23.42;;
30818;SDS011;17546;42.674;23.284;2023-12-22T00:52:05;52.58;;;23.52;;
30818;SDS011;17546;42.674;23.284;2023-12-22T00:54:30;50.05;;;22.30;;
30818;SDS011;17546;42.674;23.284;2023-12-22T00:56:57;45.85;;;22.95;;
30818;SDS011;17546;42.674;23.284;2023-12-22T00:59:23;47.03;;;21.33;;
30818;SDS011;17546;42.674;23.284;2023-12-22T01:01:49;45.95;;;22.02;;
30818;SDS011;17546;42.674;23.284;2023-12-22T01:04:14;50.10;;;21.65;;
30818;SDS011;17546;42.674;23.284;2023-12-22T01:06:40;42.90;;;21.77;;
30818;SDS011;17546;42.674;23.284;2023-12-22T01:09:06;45.15;;;21.08;;
30818;SDS011;17546;42.674;23.284;2023-12-22T01:11:31;51.33;;;22.50;;
30818;SDS011;17546;42.674;23.284;2023-12-22T01:13:57;49.20;;;23.13;;
30818;SDS011;17546;42.674;23.284;2023-12-22T01:16:22;45.55;;;21.40;;
30818;SDS011;17546;42.674;23.284;2023-12-22T01:18:49;50.00;;;22.02;;
30818;SDS011;17546;42.674;23.284;2023-12-22T01:21:15;47.03;;;22.73;;
30818;SDS011;17546;42.674;23.284;2023-12-22T01:23:41;47.85;;;20.73;;
30818;SDS011;17546;42.674;23.284;2023-12-22T01:26:07;44.45;;;21.48;;
30818;SDS011;17546;42.674;23.284;2023-12-22T01:28:35;45.88;;;22.15;;
30818;SDS011;17546;42.674;23.284;2023-12-22T01:31:01;48.10;;;22.10;;
30818;SDS011;17546;42.674;23.284;2023-12-22T01:33:27;41.58;;;21.45;;
30818;SDS011;17546;42.674;23.284;2023-12-22T01:35:54;44.00;;;21.02;;
30818;SDS011;17546;42.674;23.284;2023-12-22T01:38:20;49.88;;;21.92;;
30818;SDS011;17546;42.674;23.284;2023-12-22T01:40:45;46.63;;;21.33;;
30818;SDS011;17546;42.674;23.284;2023-12-22T01:43:11;43.15;;;20.50;;
30818;SDS011;17546;42.674;23.284;2023-12-22T01:45:38;41.03;;;20.10;;
30818;SDS011;17546;42.674;23.284;2023-12-22T01:48:04;39.45;;;19.85;;
30818;SDS011;17546;42.674;23.284;2023-12-22T01:50:30;40.45;;;19.42;;
30818;SDS011;17546;42.674;23.284;2023-12-22T01:52:56;43.55;;;18.50;;
30818;SDS011;17546;42.674;23.284;2023-12-22T01:55:22;44.53;;;18.88;;
30818;SDS011;17546;42.674;23.284;2023-12-22T01:57:47;46.33;;;18.42;;
30818;SDS011;17546;42.674;23.284;2023-12-22T02:00:14;41.28;;;18.42;;
30818;SDS011;17546;42.674;23.284;2023-12-22T02:02:40;34.65;;;17.27;;
30818;SDS011;17546;42.674;23.284;2023-12-22T02:05:09;38.78;;;18.08;;
30818;SDS011;17546;42.674;23.284;2023-12-22T02:07:37;35.72;;;18.42;;
30818;SDS011;17546;42.674;23.284;2023-12-22T02:10:06;36.85;;;18.63;;
30818;SDS011;17546;42.674;23.284;2023-12-22T02:12:37;39.13;;;18.10;;
30818;SDS011;17546;42.674;23.284;2023-12-22T02:15:03;37.25;;;17.85;;
30818;SDS011;17546;42.674;23.284;2023-12-22T02:17:33;41.38;;;18.20;;
30818;SDS011;17546;42.674;23.284;2023-12-22T02:20:10;37.42;;;18.25;;
30818;SDS011;17546;42.674;23.284;2023-12-22T02:22:36;39.00;;;18.10;;
30818;SDS011;17546;42.674;23.284;2023-12-22T02:25:02;36.38;;;18.50;;
30818;SDS011;17546;42.674;23.284;2023-12-22T02:27:28;38.22;;;18.77;;
30818;SDS011;17546;42.674;23.284;2023-12-22T02:32:59;38.30;;;18.83;;
30818;SDS011;17546;42.674;23.284;2023-12-22T02:35:26;37.22;;;18.60;;
30818;SDS011;17546;42.674;23.284;2023-12-22T02:37:56;39.50;;;18.90;;
30818;SDS011;17546;42.674;23.284;2023-12-22T02:40:23;38.78;;;18.35;;
30818;SDS011;17546;42.674;23.284;2023-12-22T02:42:51;42.53;;;18.90;;
30818;SDS011;17546;42.674;23.284;2023-12-22T02:45:18;41.70;;;18.05;;
30818;SDS011;17546;42.674;23.284;2023-12-22T02:47:44;38.35;;;19.52;;
30818;SDS011;17546;42.674;23.284;2023-12-22T02:50:10;40.33;;;19.33;;
30818;SDS011;17546;42.674;23.284;2023-12-22T02:52:39;40.20;;;19.75;;
30818;SDS011;17546;42.674;23.284;2023-12-22T02:55:04;49.25;;;19.25;;
30818;SDS011;17546;42.674;23.284;2023-12-22T02:57:30;40.83;;;19.13;;
30818;SDS011;17546;42.674;23.284;2023-12-22T02:59:56;41.33;;;19.55;;
30818;SDS011;17546;42.674;23.284;2023-12-22T03:02:22;42.35;;;18.60;;
30818;SDS011;17546;42.674;23.284;2023-12-22T03:04:47;36.88;;;17.83;;
30818;SDS011;17546;42.674;23.284;2023-12-22T03:07:13;39.88;;;18.83;;
30818;SDS011;17546;42.674;23.284;2023-12-22T03:09:39;37.33;;;19.02;;
30818;SDS011;17546;42.674;23.284;2023-12-22T03:12:06;32.17;;;17.25;;
30818;SDS011;17546;42.674;23.284;2023-12-22T03:14:32;39.83;;;19.27;;
30818;SDS011;17546;42.674;23.284;2023-12-22T03:16:58;39.88;;;19.30;;
30818;SDS011;17546;42.674;23.284;2023-12-22T03:19:24;41.33;;;19.70;;
30818;SDS011;17546;42.674;23.284;2023-12-22T03:21:50;44.05;;;19.17;;
30818;SDS011;17546;42.674;23.284;2023-12-22T03:24:16;40.17;;;19.30;;
30818;SDS011;17546;42.674;23.284;2023-12-22T03:26:43;42.60;;;19.05;;
30818;SDS011;17546;42.674;23.284;2023-12-22T03:29:09;46.70;;;20.30;;
30818;SDS011;17546;42.674;23.284;2023-12-22T03:31:34;45.45;;;19.52;;
30818;SDS011;17546;42.674;23.284;2023-12-22T03:34:00;43.90;;;19.83;;
30818;SDS011;17546;42.674;23.284;2023-12-22T03:36:25;41.05;;;19.65;;
30818;SDS011;17546;42.674;23.284;2023-12-22T03:38:51;39.10;;;19.20;;
30818;SDS011;17546;42.674;23.284;2023-12-22T03:41:16;41.50;;;19.17;;
30818;SDS011;17546;42.674;23.284;2023-12-22T03:43:42;40.55;;;20.13;;
30818;SDS011;17546;42.674;23.284;2023-12-22T03:46:07;39.28;;;19.42;;
30818;SDS011;17546;42.674;23.284;2023-12-22T03:48:33;43.38;;;20.55;;
30818;SDS011;17546;42.674;23.284;2023-12-22T03:50:59;39.72;;;19.33;;
30818;SDS011;17546;42.674;23.284;2023-12-22T03:53:24;45.28;;;19.90;;
30818;SDS011;17546;42.674;23.284;2023-12-22T03:55:50;44.20;;;19.60;;
30818;SDS011;17546;42.674;23.284;2023-12-22T03:58:15;40.47;;;19.65;;
30818;SDS011;17546;42.674;23.284;2023-12-22T04:00:41;42.15;;;19.00;;
30818;SDS011;17546;42.674;23.284;2023-12-22T04:03:06;38.55;;;18.58;;
30818;SDS011;17546;42.674;23.284;2023-12-22T04:05:32;42.78;;;19.60;;
30818;SDS011;17546;42.674;23.284;2023-12-22T04:07:57;41.97;;;19.50;;
30818;SDS011;17546;42.674;23.284;2023-12-22T04:10:23;40.83;;;19.67;;
30818;SDS011;17546;42.674;23.284;2023-12-22T04:12:48;38.17;;;17.55;;
30818;SDS011;17546;42.674;23.284;2023-12-22T04:15:14;44.03;;;19.17;;
30818;SDS011;17546;42.674;23.284;2023-12-22T04:17:39;36.80;;;18.60;;
30818;SDS011;17546;42.674;23.284;2023-12-22T04:20:06;41.75;;;19.55;;
30818;SDS011;17546;42.674;23.284;2023-12-22T04:22:32;39.85;;;18.60;;
30818;SDS011;17546;42.674;23.284;2023-12-22T04:24:57;41.35;;;18.73;;
30818;SDS011;17546;42.674;23.284;2023-12-22T04:27:23;39.70;;;19.23;;
30818;SDS011;17546;42.674;23.284;2023-12-22T04:29:48;40.30;;;18.67;;
30818;SDS011;17546;42.674;23.284;2023-12-22T04:32:14;42.00;;;19.10;;
30818;SDS011;17546;42.674;23.284;2023-12-22T04:34:39;41.67;;;19.20;;
30818;SDS011;17546;42.674;23.284;2023-12-22T04:37:05;35.92;;;18.27;;
30818;SDS011;17546;42.674;23.284;2023-12-22T04:39:30;45.08;;;18.80;;
30818;SDS011;17546;42.674;23.284;2023-12-22T04:41:56;39.67;;;19.17;;
30818;SDS011;17546;42.674;23.284;2023-12-22T04:44:21;38.13;;;18.52;;
30818;SDS011;17546;42.674;23.284;2023-12-22T04:46:47;44.85;;;20.55;;
30818;SDS011;17546;42.674;23.284;2023-12-22T04:49:12;37.67;;;18.02;;
30818;SDS011;17546;42.674;23.284;2023-12-22T04:51:37;36.42;;;18.90;;
30818;SDS011;17546;42.674;23.284;2023-12-22T04:54:03;43.78;;;18.63;;
30818;SDS011;17546;42.674;23.284;2023-12-22T04:56:28;38.67;;;17.88;;
30818;SDS011;17546;42.674;23.284;2023-12-22T04:58:54;43.58;;;18.73;;
30818;SDS011;17546;42.674;23.284;2023-12-22T05:01:19;43.13;;;18.73;;
30818;SDS011;17546;42.674;23.284;2023-12-22T05:03:46;36.25;;;17.83;;
30818;SDS011;17546;42.674;23.284;2023-12-22T05:06:11;38.90;;;18.42;;
30818;SDS011;17546;42.674;23.284;2023-12-22T05:08:37;42.67;;;19.02;;
30818;SDS011;17546;42.674;23.284;2023-12-22T05:11:02;44.88;;;20.35;;
30818;SDS011;17546;42.674;23.284;2023-12-22T05:13:28;39.42;;;19.95;;
30818;SDS011;17546;42.674;23.284;2023-12-22T05:15:54;44.10;;;19.00;;
30818;SDS011;17546;42.674;23.284;2023-12-22T05:18:20;37.17;;;18.98;;
30818;SDS011;17546;42.674;23.284;2023-12-22T05:20:45;40.35;;;19.33;;
30818;SDS011;17546;42.674;23.284;2023-12-22T05:23:11;39.45;;;19.27;;
30818;SDS011;17546;42.674;23.284;2023-12-22T05:25:36;35.38;;;18.15;;
30818;SDS011;17546;42.674;23.284;2023-12-22T05:28:02;39.30;;;19.23;;
30818;SDS011;17546;42.674;23.284;2023-12-22T05:30:28;31.70;;;17.58;;
30818;SDS011;17546;42.674;23.284;2023-12-22T05:32:53;40.13;;;18.35;;
30818;SDS011;17546;42.674;23.284;2023-12-22T05:35:19;39.45;;;18.98;;
30818;SDS011;17546;42.674;23.284;2023-12-22T05:37:46;33.72;;;17.90;;
30818;SDS011;17546;42.674;23.284;2023-12-22T05:40:13;39.53;;;17.10;;
30818;SDS011;17546;42.674;23.284;2023-12-22T05:42:38;27.27;;;14.70;;
30818;SDS011;17546;42.674;23.284;2023-12-22T05:45:04;27.75;;;14.98;;
30818;SDS011;17546;42.674;23.284;2023-12-22T05:47:31;27.27;;;13.68;;
30818;SDS011;17546;42.674;23.284;2023-12-22T05:49:57;32.30;;;15.40;;
30818;SDS011;17546;42.674;23.284;2023-12-22T05:52:22;27.55;;;14.85;;
30818;SDS011;17546;42.674;23.284;2023-12-22T05:54:47;32.13;;;15.90;;
30818;SDS011;17546;42.674;23.284;2023-12-22T05:57:13;37.22;;;17.05;;
30818;SDS011;17546;42.674;23.284;2023-12-22T05:59:38;33.22;;;16.95;;
30818;SDS011;17546;42.674;23.284;2023-12-22T06:02:04;35.28;;;17.55;;
30818;SDS011;17546;42.674;23.284;2023-12-22T06:04:29;32.95;;;17.25;;
30818;SDS011;17546;42.674;23.284;2023-12-22T06:06:55;37.00;;;17.55;;
30818;SDS011;17546;42.674;23.284;2023-12-22T06:09:21;35.53;;;18.58;;
30818;SDS011;17546;42.674;23.284;2023-12-22T06:11:48;38.60;;;19.67;;
30818;SDS011;17546;42.674;23.284;2023-12-22T06:14:14;44.08;;;19.10;;
30818;SDS011;17546;42.674;23.284;2023-12-22T06:16:39;38.30;;;19.80;;
30818;SDS011;17546;42.674;23.284;2023-12-22T06:19:05;44.47;;;20.52;;
30818;SDS011;17546;42.674;23.284;2023-12-22T06:21:31;42.92;;;20.45;;
30818;SDS011;17546;42.674;23.284;2023-12-22T06:23:56;40.60;;;20.17;;
30818;SDS011;17546;42.674;23.284;2023-12-22T06:26:22;36.97;;;18.63;;
30818;SDS011;17546;42.674;23.284;2023-12-22T06:28:48;37.97;;;19.02;;
30818;SDS011;17546;42.674;23.284;2023-12-22T06:31:18;41.22;;;21.05;;
30818;SDS011;17546;42.674;23.284;2023-12-22T06:33:45;43.03;;;18.70;;
30818;SDS011;17546;42.674;23.284;2023-12-22T06:36:20;38.80;;;17.88;;
30818;SDS011;17546;42.674;23.284;2023-12-22T06:38:47;37.08;;;18.33;;
30818;SDS011;17546;42.674;23.284;2023-12-22T06:41:22;44.53;;;18.98;;
30818;SDS011;17546;42.674;23.284;2023-12-22T06:43:50;32.28;;;17.23;;
30818;SDS011;17546;42.674;23.284;2023-12-22T06:46:16;39.33;;;18.38;;
30818;SDS011;17546;42.674;23.284;2023-12-22T06:48:43;35.58;;;18.70;;
30818;SDS011;17546;42.674;23.284;2023-12-22T06:51:16;37.35;;;18.42;;
30818;SDS011;17546;42.674;23.284;2023-12-22T06:53:52;40.17;;;18.13;;
30818;SDS011;17546;42.674;23.284;2023-12-22T06:56:20;38.45;;;18.55;;
30818;SDS011;17546;42.674;23.284;2023-12-22T06:58:48;39.60;;;18.23;;
30818;SDS011;17546;42.674;23.284;2023-12-22T07:01:28;37.10;;;19.02;;
30818;SDS011;17546;42.674;23.284;2023-12-22T07:03:56;35.45;;;18.02;;
30818;SDS011;17546;42.674;23.284;2023-12-22T07:06:22;39.42;;;17.60;;
30818;SDS011;17546;42.674;23.284;2023-12-22T07:14:13;44.15;;;17.65;;
30818;SDS011;17546;42.674;23.284;2023-12-22T07:16:38;31.98;;;17.90;;
30818;SDS011;17546;42.674;23.284;2023-12-22T07:19:04;36.22;;;18.50;;
30818;SDS011;17546;42.674;23.284;2023-12-22T07:21:33;42.53;;;18.48;;
30818;SDS011;17546;42.674;23.284;2023-12-22T07:23:59;36.30;;;18.55;;
30818;SDS011;17546;42.674;23.284;2023-12-22T07:26:25;36.75;;;18.05;;
30818;SDS011;17546;42.674;23.284;2023-12-22T07:28:54;37.70;;;18.88;;
30818;SDS011;17546;42.674;23.284;2023-12-22T07:31:20;38.90;;;21.23;;
30818;SDS011;17546;42.674;23.284;2023-12-22T07:33:46;38.05;;;19.25;;
30818;SDS011;17546;42.674;23.284;2023-12-22T07:36:11;40.92;;;19.17;;
30818;SDS011;17546;42.674;23.284;2023-12-22T07:38:37;42.75;;;19.92;;
30818;SDS011;17546;42.674;23.284;2023-12-22T07:41:04;38.65;;;18.73;;
30818;SDS011;17546;42.674;23.284;2023-12-22T07:43:30;42.00;;;19.90;;
30818;SDS011;17546;42.674;23.284;2023-12-22T07:45:55;36.65;;;19.15;;
30818;SDS011;17546;42.674;23.284;2023-12-22T07:48:21;41.75;;;18.83;;
30818;SDS011;17546;42.674;23.284;2023-12-22T07:50:46;49.08;;;21.67;;
30818;SDS011;17546;42.674;23.284;2023-12-22T07:53:12;49.70;;;20.98;;
30818;SDS011;17546;42.674;23.284;2023-12-22T07:55:37;46.92;;;20.88;;
30818;SDS011;17546;42.674;23.284;2023-12-22T07:58:06;41.70;;;20.40;;
30818;SDS011;17546;42.674;23.284;2023-12-22T08:00:32;38.63;;;19.52;;
30818;SDS011;17546;42.674;23.284;2023-12-22T08:02:58;47.90;;;20.52;;
30818;SDS011;17546;42.674;23.284;2023-12-22T08:05:24;42.35;;;20.35;;
30818;SDS011;17546;42.674;23.284;2023-12-22T08:07:49;38.22;;;19.77;;
30818;SDS011;17546;42.674;23.284;2023-12-22T08:10:15;45.05;;;20.33;;
30818;SDS011;17546;42.674;23.284;2023-12-22T08:12:41;36.58;;;20.42;;
30818;SDS011;17546;42.674;23.284;2023-12-22T08:15:07;39.63;;;20.00;;
30818;SDS011;17546;42.674;23.284;2023-12-22T08:17:35;40.10;;;19.02;;
30818;SDS011;17546;42.674;23.284;2023-12-22T08:20:02;38.13;;;19.23;;
30818;SDS011;17546;42.674;23.284;2023-12-22T08:22:28;41.78;;;20.40;;
30818;SDS011;17546;42.674;23.284;2023-12-22T08:24:53;40.25;;;20.88;;
30818;SDS011;17546;42.674;23.284;2023-12-22T08:27:19;44.67;;;21.50;;
30818;SDS011;17546;42.674;23.284;2023-12-22T08:29:44;42.83;;;21.45;;
30818;SDS011;17546;42.674;23.284;2023-12-22T08:32:10;40.83;;;20.20;;
30818;SDS011;17546;42.674;23.284;2023-12-22T08:34:36;42.03;;;20.05;;
30818;SDS011;17546;42.674;23.284;2023-12-22T08:37:02;50.15;;;22.25;;
30818;SDS011;17546;42.674;23.284;2023-12-22T08:39:28;44.67;;;21.40;;
30818;SDS011;17546;42.674;23.284;2023-12-22T08:41:53;43.05;;;22.40;;
30818;SDS011;17546;42.674;23.284;2023-12-22T08:44:19;45.88;;;21.98;;
30818;SDS011;17546;42.674;23.284;2023-12-22T08:46:44;36.25;;;20.45;;
30818;SDS011;17546;42.674;23.284;2023-12-22T08:49:10;44.10;;;22.15;;
30818;SDS011;17546;42.674;23.284;2023-12-22T08:51:35;44.03;;;22.35;;
30818;SDS011;17546;42.674;23.284;2023-12-22T08:54:01;53.65;;;24.10;;
30818;SDS011;17546;42.674;23.284;2023-12-22T08:56:26;46.85;;;24.45;;
30818;SDS011;17546;42.674;23.284;2023-12-22T08:58:52;46.92;;;22.33;;
30818;SDS011;17546;42.674;23.284;2023-12-22T09:01:20;43.40;;;23.48;;
30818;SDS011;17546;42.674;23.284;2023-12-22T09:03:47;49.35;;;23.17;;
30818;SDS011;17546;42.674;23.284;2023-12-22T09:06:14;50.30;;;23.98;;
30818;SDS011;17546;42.674;23.284;2023-12-22T09:08:40;45.10;;;23.65;;
30818;SDS011;17546;42.674;23.284;2023-12-22T09:11:06;48.00;;;23.40;;
30818;SDS011;17546;42.674;23.284;2023-12-22T09:13:32;48.75;;;24.10;;
30818;SDS011;17546;42.674;23.284;2023-12-22T09:16:00;50.08;;;25.17;;
30818;SDS011;17546;42.674;23.284;2023-12-22T09:18:27;56.17;;;25.35;;
30818;SDS011;17546;42.674;23.284;2023-12-22T09:20:53;56.38;;;25.98;;
30818;SDS011;17546;42.674;23.284;2023-12-22T09:23:19;48.55;;;27.65;;
30818;SDS011;17546;42.674;23.284;2023-12-22T09:25:45;52.40;;;25.63;;
30818;SDS011;17546;42.674;23.284;2023-12-22T09:28:10;56.35;;;25.90;;
30818;SDS011;17546;42.674;23.284;2023-12-22T09:30:37;50.75;;;24.92;;
30818;SDS011;17546;42.674;23.284;2023-12-22T09:33:03;51.83;;;25.70;;
30818;SDS011;17546;42.674;23.284;2023-12-22T09:35:29;56.75;;;27.20;;
30818;SDS011;17546;42.674;23.284;2023-12-22T09:37:55;61.88;;;27.63;;
30818;SDS011;17546;42.674;23.284;2023-12-22T09:40:20;58.78;;;26.40;;
30818;SDS011;17546;42.674;23.284;2023-12-22T09:42:47;49.83;;;24.88;;
30818;SDS011;17546;42.674;23.284;2023-12-22T09:45:13;55.20;;;27.08;;
30818;SDS011;17546;42.674;23.284;2023-12-22T09:47:44;53.92;;;25.40;;
30818;SDS011;17546;42.674;23.284;2023-12-22T09:50:10;57.58;;;24.90;;
30818;SDS011;17546;42.674;23.284;2023-12-22T09:52:36;48.63;;;24.75;;
30818;SDS011;17546;42.674;23.284;2023-12-22T09:55:05;49.60;;;24.85;;
30818;SDS011;17546;42.674;23.284;2023-12-22T09:57:33;50.97;;;24.98;;
30818;SDS011;17546;42.674;23.284;2023-12-22T10:00:00;51.80;;;25.33;;
30818;SDS011;17546;42.674;23.284;2023-12-22T10:02:31;46.92;;;23.63;;
30818;SDS011;17546;42.674;23.284;2023-12-22T10:04:58;54.03;;;27.75;;
30818;SDS011;17546;42.674;23.284;2023-12-22T10:07:24;54.65;;;28.05;;
30818;SDS011;17546;42.674;23.284;2023-12-22T10:09:51;59.33;;;28.15;;
30818;SDS011;17546;42.674;23.284;2023-12-22T10:12:19;56.38;;;28.35;;
30818;SDS011;17546;42.674;23.284;2023-12-22T10:14:45;56.97;;;28.77;;
30818;SDS011;17546;42.674;23.284;2023-12-22T10:17:12;62.28;;;30.60;;
30818;SDS011;17546;42.674;23.284;2023-12-22T10:19:39;67.63;;;34.65;;
30818;SDS011;17546;42.674;23.284;2023-12-22T10:22:05;64.60;;;33.03;;
30818;SDS011;17546;42.674;23.284;2023-12-22T10:24:37;63.10;;;32.38;;
30818;SDS011;17546;42.674;23.284;2023-12-22T10:27:13;71.13;;;33.72;;
30818;SDS011;17546;42.674;23.284;2023-12-22T10:29:41;66.05;;;33.35;;
30818;SDS011;17546;42.674;23.284;2023-12-22T10:32:07;63.63;;;30.20;;
30818;SDS011;17546;42.674;23.284;2023-12-22T10:34:36;59.03;;;27.60;;
30818;SDS011;17546;42.674;23.284;2023-12-22T10:37:02;28.77;;;15.32;;
30818;SDS011;17546;42.674;23.284;2023-12-22T10:39:30;26.58;;;12.90;;
30818;SDS011;17546;42.674;23.284;2023-12-22T10:41:58;25.30;;;10.43;;
30818;SDS011;17546;42.674;23.284;2023-12-22T10:44:24;22.35;;;9.38;;
30818;SDS011;17546;42.674;23.284;2023-12-22T10:46:50;27.20;;;8.82;;
30818;SDS011;17546;42.674;23.284;2023-12-22T10:49:16;9.00;;;4.70;;
30818;SDS011;17546;42.674;23.284;2023-12-22T10:51:42;13.32;;;5.35;;
30818;SDS011;17546;42.674;23.284;2023-12-22T10:54:07;10.57;;;4.72;;
30818;SDS011;17546;42.674;23.284;2023-12-22T10:56:33;7.53;;;2.97;;
30818;SDS011;17546;42.674;23.284;2023-12-22T10:59:00;4.00;;;2.22;;
30818;SDS011;17546;42.674;23.284;2023-12-22T11:01:31;4.13;;;2.30;;
30818;SDS011;17546;42.674;23.284;2023-12-22T11:04:09;4.55;;;2.20;;
30818;SDS011;17546;42.674;23.284;2023-12-22T11:06:42;2.88;;;1.90;;
30818;SDS011;17546;42.674;23.284;2023-12-22T11:09:10;2.95;;;1.70;;
30818;SDS011;17546;42.674;23.284;2023-12-22T11:11:37;3.92;;;2.00;;
30818;SDS011;17546;42.674;23.284;2023-12-22T11:14:04;4.15;;;2.25;;
30818;SDS011;17546;42.674;23.284;2023-12-22T11:16:32;3.63;;;2.10;;
30818;SDS011;17546;42.674;23.284;2023-12-22T11:19:05;4.05;;;1.88;;
30818;SDS011;17546;42.674;23.284;2023-12-22T11:21:33;2.95;;;1.90;;
30818;SDS011;17546;42.674;23.284;2023-12-22T11:24:04;2.53;;;1.70;;
30818;SDS011;17546;42.674;23.284;2023-12-22T11:26:32;2.58;;;1.42;;
30818;SDS011;17546;42.674;23.284;2023-12-22T11:28:58;3.38;;;1.23;;
30818;SDS011;17546;42.674;23.284;2023-12-22T11:31:25;3.22;;;1.80;;
30818;SDS011;17546;42.674;23.284;2023-12-22T11:33:53;4.00;;;1.85;;
30818;SDS011;17546;42.674;23.284;2023-12-22T11:36:21;4.00;;;2.00;;
30818;SDS011;17546;42.674;23.284;2023-12-22T11:38:48;3.63;;;1.80;;
30818;SDS011;17546;42.674;23.284;2023-12-22T11:41:18;1.75;;;1.30;;
30818;SDS011;17546;42.674;23.284;2023-12-22T11:43:47;2.55;;;1.50;;
30818;SDS011;17546;42.674;23.284;2023-12-22T11:46:16;3.13;;;1.50;;
30818;SDS011;17546;42.674;23.284;2023-12-22T11:48:52;2.30;;;1.60;;
30818;SDS011;17546;42.674;23.284;2023-12-22T11:51:18;3.08;;;1.60;;
30818;SDS011;17546;42.674;23.284;2023-12-22T11:53:59;2.92;;;1.55;;
30818;SDS011;17546;42.674;23.284;2023-12-22T11:56:25;3.33;;;1.50;;
30818;SDS011;17546;42.674;23.284;2023-12-22T11:58:52;2.20;;;1.50;;
30818;SDS011;17546;42.674;23.284;2023-12-22T12:01:24;2.92;;;1.48;;
30818;SDS011;17546;42.674;23.284;2023-12-22T12:04:01;3.55;;;1.92;;
30818;SDS011;17546;42.674;23.284;2023-12-22T12:09:05;4.28;;;2.10;;
30818;SDS011;17546;42.674;23.284;2023-12-22T12:14:29;2.38;;;1.52;;
30818;SDS011;17546;42.674;23.284;2023-12-22T12:17:07;4.97;;;1.52;;
30818;SDS011;17546;42.674;23.284;2023-12-22T12:19:37;3.42;;;1.50;;
30818;SDS011;17546;42.674;23.284;2023-12-22T12:22:04;2.97;;;1.73;;
30818;SDS011;17546;42.674;23.284;2023-12-22T12:24:30;3.70;;;1.88;;
30818;SDS011;17546;42.674;23.284;2023-12-22T12:26:56;5.68;;;1.45;;
30818;SDS011;17546;42.674;23.284;2023-12-22T12:29:22;3.45;;;1.40;;
30818;SDS011;17546;42.674;23.284;2023-12-22T12:31:48;7.22;;;2.13;;
30818;SDS011;17546;42.674;23.284;2023-12-22T12:34:14;6.07;;;2.05;;
30818;SDS011;17546;42.674;23.284;2023-12-22T12:36:41;3.90;;;1.80;;
30818;SDS011;17546;42.674;23.284;2023-12-22T12:39:07;4.70;;;1.80;;
30818;SDS011;17546;42.674;23.284;2023-12-22T12:41:35;3.85;;;1.90;;
30818;SDS011;17546;42.674;23.284;2023-12-22T12:44:05;3.72;;;1.88;;
30818;SDS011;17546;42.674;23.284;2023-12-22T12:46:32;4.82;;;1.85;;
30818;SDS011;17546;42.674;23.284;2023-12-22T12:49:07;3.08;;;1.73;;
30818;SDS011;17546;42.674;23.284;2023-12-22T12:51:37;2.90;;;1.70;;
30818;SDS011;17546;42.674;23.284;2023-12-22T12:54:06;3.95;;;2.13;;
30818;SDS011;17546;42.674;23.284;2023-12-22T12:56:39;4.75;;;2.08;;
30818;SDS011;17546;42.674;23.284;2023-12-22T12:59:07;4.35;;;2.00;;
30818;SDS011;17546;42.674;23.284;2023-12-22T13:01:37;4.03;;;1.92;;
30818;SDS011;17546;42.674;23.284;2023-12-22T13:04:12;3.40;;;1.85;;
30818;SDS011;17546;42.674;23.284;2023-12-22T13:06:47;3.88;;;2.22;;
30818;SDS011;17546;42.674;23.284;2023-12-22T13:09:14;4.10;;;2.10;;
30818;SDS011;17546;42.674;23.284;2023-12-22T13:11:41;7.63;;;2.40;;
30818;SDS011;17546;42.674;23.284;2023-12-22T13:14:11;6.18;;;2.13;;
30818;SDS011;17546;42.674;23.284;2023-12-22T13:16:37;6.32;;;3.00;;
30818;SDS011;17546;42.674;23.284;2023-12-22T13:19:04;5.47;;;1.85;;
30818;SDS011;17546;42.674;23.284;2023-12-22T13:21:30;4.88;;;1.80;;
30818;SDS011;17546;42.674;23.284;2023-12-22T13:24:12;4.82;;;2.50;;
30818;SDS011;17546;42.674;23.284;2023-12-22T13:26:39;4.65;;;2.22;;
30818;SDS011;17546;42.674;23.284;2023-12-22T13:29:08;5.65;;;2.35;;
30818;SDS011;17546;42.674;23.284;2023-12-22T13:31:38;3.85;;;2.13;;
30818;SDS011;17546;42.674;23.284;2023-12-22T13:34:12;6.45;;;2.50;;
30818;SDS011;17546;42.674;23.284;2023-12-22T13:36:38;4.72;;;2.35;;
30818;SDS011;17546;42.674;23.284;2023-12-22T13:39:05;4.60;;;2.50;;
30818;SDS011;17546;42.674;23.284;2023-12-22T13:41:38;5.78;;;2.42;;
30818;SDS011;17546;42.674;23.284;2023-12-22T13:44:10;6.70;;;2.58;;
30818;SDS011;17546;42.674;23.284;2023-12-22T13:46:39;4.68;;;2.60;;
30818;SDS011;17546;42.674;23.284;2023-12-22T13:49:07;5.28;;;2.13;;
30818;SDS011;17546;42.674;23.284;2023-12-22T13:51:44;4.85;;;2.75;;
30818;SDS011;17546;42.674;23.284;2023-12-22T13:54:12;5.10;;;2.53;;
30818;SDS011;17546;42.674;23.284;2023-12-22T13:56:38;3.95;;;1.63;;
30818;SDS011;17546;42.674;23.284;2023-12-22T13:59:08;3.13;;;1.73;;
30818;SDS011;17546;42.674;23.284;2023-12-22T14:01:34;3.90;;;1.88;;
30818;SDS011;17546;42.674;23.284;2023-12-22T14:04:00;3.45;;;2.00;;
30818;SDS011;17546;42.674;23.284;2023-12-22T14:06:26;3.35;;;2.00;;
30818;SDS011;17546;42.674;23.284;2023-12-22T14:08:55;7.70;;;2.53;;
30818;SDS011;17546;42.674;23.284;2023-12-22T14:11:21;7.80;;;1.77;;
30818;SDS011;17546;42.674;23.284;2023-12-22T14:13:47;5.65;;;2.00;;
30818;SDS011;17546;42.674;23.284;2023-12-22T14:16:13;3.05;;;1.50;;
30818;SDS011;17546;42.674;23.284;2023-12-22T14:18:40;4.55;;;1.85;;
30818;SDS011;17546;42.674;23.284;2023-12-22T14:21:06;4.45;;;2.38;;
30818;SDS011;17546;42.674;23.284;2023-12-22T14:23:31;4.63;;;2.20;;
30818;SDS011;17546;42.674;23.284;2023-12-22T14:25:57;4.38;;;2.05;;
30818;SDS011;17546;42.674;23.284;2023-12-22T14:28:23;2.88;;;1.92;;